createdAt,value
2023-03-12T00:00:22.495Z,98336.53
2023-03-12T00:02:24.378Z,98340.25
2023-03-12T00:04:31.288Z,98338.81
2023-03-12T00:06:33.036Z,98330.31
2023-03-12T00:08:36.000Z,98342.16
2023-03-12T00:10:39.869Z,98347.09
2023-03-12T00:12:41.518Z,98345.25
2023-03-12T00:14:46.082Z,98344.63
2023-03-12T00:16:47.547Z,98348.34
2023-03-12T00:18:51.166Z,98355.81
2023-03-12T00:20:54.323Z,98355.22
2023-03-12T00:22:55.794Z,98350.84
2023-03-12T00:24:57.556Z,98358.09
2023-03-12T00:26:59.099Z,98353.75
2023-03-12T00:29:03.336Z,98355.84
2023-03-12T00:31:14.715Z,98350.88
2023-03-12T00:33:16.416Z,98355.41
2023-03-12T00:35:18.218Z,98355.81
2023-03-12T00:37:20.950Z,98358.75
2023-03-12T00:39:22.473Z,98353.53
2023-03-12T00:41:24.962Z,98353.53
2023-03-12T00:43:26.490Z,98345.47
2023-03-12T00:45:28.238Z,98345.91
2023-03-12T00:47:29.693Z,98346.09
2023-03-12T00:49:31.382Z,98347.16
2023-03-12T00:51:34.024Z,98345.72
2023-03-12T00:53:36.192Z,98346.94
2023-03-12T00:55:37.689Z,98346.13
2023-03-12T00:57:39.168Z,98347.13
2023-03-12T00:59:40.974Z,98348.59
2023-03-12T01:01:43.396Z,98346.09
2023-03-12T01:03:45.673Z,98350.03
2023-03-12T01:05:54.136Z,98349.22
2023-03-12T01:07:55.820Z,98349.22
2023-03-12T01:09:57.465Z,98351.28
2023-03-12T01:11:59.129Z,98346.72
2023-03-12T01:14:04.334Z,98350.47
2023-03-12T01:16:06.599Z,98347.97
2023-03-12T01:18:08.659Z,98348.38
2023-03-12T01:20:13.896Z,98351.06
2023-03-12T01:22:15.407Z,98352.13
2023-03-12T01:24:16.956Z,98355.00
2023-03-12T01:26:19.479Z,98357.06
2023-03-12T01:28:22.755Z,98351.69
2023-03-12T01:30:25.672Z,98353.53
2023-03-12T01:32:27.258Z,98350.25
2023-03-12T01:34:33.408Z,98359.56
2023-03-12T01:36:34.980Z,98356.03
2023-03-12T01:38:36.457Z,98355.41
2023-03-12T01:40:38.563Z,98350.25
2023-03-12T01:42:43.335Z,98344.44
2023-03-12T01:44:57.160Z,98354.38
2023-03-12T01:47:01.692Z,98349.81
2023-03-12T01:49:14.343Z,98352.50
2023-03-12T01:51:18.911Z,98352.72
2023-03-12T01:53:20.667Z,98344.84
2023-03-12T01:55:22.699Z,98350.22
2023-03-12T01:57:31.131Z,98338.63
2023-03-12T01:59:38.787Z,98338.00
2023-03-12T02:01:41.809Z,98336.78
2023-03-12T02:03:49.160Z,98332.22
2023-03-12T02:06:03.093Z,98332.63
2023-03-12T02:08:10.775Z,98332.63
2023-03-12T02:10:13.692Z,98325.63
2023-03-12T02:12:17.287Z,98333.03
2023-03-12T02:14:19.384Z,98330.34
2023-03-12T02:16:21.407Z,98331.19
2023-03-12T02:18:23.645Z,98334.09
2023-03-12T02:20:32.154Z,98336.16
2023-03-12T02:22:38.625Z,98340.50
2023-03-12T02:24:51.264Z,98330.34
2023-03-12T02:26:55.349Z,98327.66
2023-03-12T02:28:59.694Z,98327.66
2023-03-12T02:31:03.642Z,98327.03
2023-03-12T02:33:08.362Z,98332.00
2023-03-12T02:35:10.308Z,98329.31
2023-03-12T02:37:11.832Z,98336.38
2023-03-12T02:39:13.561Z,98339.69
2023-03-12T02:41:18.059Z,98341.31
2023-03-12T02:43:22.697Z,98339.28
2023-03-12T02:45:25.848Z,98343.59
2023-03-12T02:47:27.497Z,98353.34
2023-03-12T02:49:31.930Z,98344.25
2023-03-12T02:51:34.644Z,98343.19
2023-03-12T02:53:36.559Z,98344.47
2023-03-12T02:55:39.286Z,98343.41
2023-03-12T02:57:43.937Z,98342.38
2023-03-12T02:59:47.847Z,98342.16
2023-03-12T03:01:57.148Z,98346.09
2023-03-12T03:03:58.704Z,98340.94
2023-03-12T03:06:01.463Z,98343.44
2023-03-12T03:08:04.252Z,98342.59
2023-03-12T03:10:06.613Z,98341.13
2023-03-12T03:12:08.561Z,98339.06
2023-03-12T03:14:11.487Z,98349.41
2023-03-12T03:16:14.985Z,98347.34
2023-03-12T03:18:16.590Z,98350.88
2023-03-12T03:20:18.692Z,98343.41
2023-03-12T03:22:21.550Z,98342.78
2023-03-12T03:24:23.330Z,98347.78
2023-03-12T03:26:25.180Z,98344.84
2023-03-12T03:28:29.170Z,98344.25
2023-03-12T03:30:33.024Z,98343.22
2023-03-12T03:32:34.552Z,98338.66
2023-03-12T03:34:36.448Z,98336.56
2023-03-12T03:36:37.974Z,98340.31
2023-03-12T03:38:49.127Z,98345.72
2023-03-12T03:40:51.530Z,98348.19
2023-03-12T03:42:53.096Z,98346.94
2023-03-12T03:44:56.931Z,98346.53
2023-03-12T03:46:59.008Z,98350.84
2023-03-12T03:49:01.265Z,98350.06
2023-03-12T03:51:06.759Z,98349.84
2023-03-12T03:53:10.637Z,98350.44
2023-03-12T03:55:12.110Z,98362.06
2023-03-12T03:57:14.726Z,98358.53
2023-03-12T03:59:18.206Z,98352.13
2023-03-12T04:01:21.498Z,98362.47
2023-03-12T04:03:24.334Z,98358.13
2023-03-12T04:05:30.839Z,98352.31
2023-03-12T04:07:35.642Z,98351.91
2023-03-12T04:09:40.590Z,98342.78
2023-03-12T04:11:42.653Z,98343.59
2023-03-12T04:13:48.853Z,98347.97
2023-03-12T04:15:54.074Z,98346.72
2023-03-12T04:17:55.957Z,98340.28
2023-03-12T04:19:58.165Z,98350.03
2023-03-12T04:22:00.360Z,98345.47
2023-03-12T04:24:01.889Z,98343.16
2023-03-12T04:26:10.188Z,98344.84
2023-03-12T04:28:13.469Z,98339.44
2023-03-12T04:30:15.224Z,98343.16
2023-03-12T04:32:16.960Z,98334.06
2023-03-12T04:34:18.703Z,98338.41
2023-03-12T04:36:23.763Z,98338.22
2023-03-12T04:38:30.157Z,98334.25
2023-03-12T04:40:32.707Z,98347.13
2023-03-12T04:42:35.491Z,98345.88
2023-03-12T04:44:37.487Z,98339.66
2023-03-12T04:46:39.529Z,98340.03
2023-03-12T04:48:43.441Z,98344.63
2023-03-12T04:50:45.290Z,98340.88
2023-03-12T04:52:47.779Z,98339.22
2023-03-12T04:54:49.422Z,98339.00
2023-03-12T04:56:54.076Z,98331.75
2023-03-12T04:58:57.304Z,98332.38
2023-03-12T05:00:58.795Z,98334.25
2023-03-12T05:03:00.459Z,98336.94
2023-03-12T05:05:02.298Z,98336.94
2023-03-12T05:07:04.311Z,98339.22
2023-03-12T05:09:05.855Z,98336.75
2023-03-12T05:11:07.814Z,98338.38
2023-03-12T05:13:18.223Z,98336.09
2023-03-12T05:15:20.785Z,98341.25
2023-03-12T05:17:22.570Z,98347.72
2023-03-12T05:19:24.396Z,98345.63
2023-03-12T05:21:26.030Z,98343.78
2023-03-12T05:23:30.127Z,98340.88
2023-03-12T05:25:39.571Z,98340.44
2023-03-12T05:27:41.608Z,98342.31
2023-03-12T05:29:44.132Z,98333.41
2023-03-12T05:31:46.051Z,98343.97
2023-03-12T05:33:48.580Z,98342.09
2023-03-12T05:35:51.573Z,98332.34
2023-03-12T05:37:55.988Z,98342.31
2023-03-12T05:39:57.591Z,98335.03
2023-03-12T05:41:59.619Z,98341.25
2023-03-12T05:44:01.272Z,98339.41
2023-03-12T05:46:05.032Z,98340.84
2023-03-12T05:48:08.609Z,98334.44
2023-03-12T05:50:11.775Z,98338.75
2023-03-12T05:52:14.641Z,98331.50
2023-03-12T05:54:21.062Z,98336.69
2023-03-12T05:56:32.510Z,98335.44
2023-03-12T05:58:35.324Z,98344.34
2023-03-12T06:00:38.180Z,98342.47
2023-03-12T06:02:41.456Z,98350.16
2023-03-12T06:04:44.935Z,98345.59
2023-03-12T06:06:47.038Z,98339.75
2023-03-12T06:08:49.885Z,98338.72
2023-03-12T06:10:54.754Z,98340.41
2023-03-12T06:12:59.146Z,98334.56
2023-03-12T06:15:00.598Z,98331.88
2023-03-12T06:17:02.807Z,98328.13
2023-03-12T06:19:05.004Z,98334.97
2023-03-12T06:21:11.943Z,98328.34
2023-03-12T06:23:14.377Z,98337.25
2023-03-12T06:25:18.819Z,98336.19
2023-03-12T06:27:20.560Z,98346.56
2023-03-12T06:29:22.195Z,98340.97
2023-03-12T06:31:26.566Z,98347.81
2023-03-12T06:33:28.543Z,98356.50
2023-03-12T06:35:30.416Z,98350.25
2023-03-12T06:37:32.072Z,98339.25
2023-03-12T06:39:33.635Z,98343.16
2023-03-12T06:41:35.698Z,98341.72
2023-03-12T06:43:41.656Z,98350.63
2023-03-12T06:45:43.132Z,98345.63
2023-03-12T06:47:44.736Z,98338.13
2023-03-12T06:49:46.297Z,98350.16
2023-03-12T06:51:47.946Z,98336.03
2023-03-12T06:53:51.808Z,98333.50
2023-03-12T06:55:53.284Z,98327.47
2023-03-12T06:57:55.002Z,98344.44
2023-03-12T06:59:56.507Z,98335.50
2023-03-12T07:01:58.062Z,98339.38
2023-03-12T07:03:59.635Z,98329.41
2023-03-12T07:06:01.626Z,98329.13
2023-03-12T07:08:03.294Z,98330.13
2023-03-12T07:10:06.596Z,98322.00
2023-03-12T07:12:08.778Z,98320.06
2023-03-12T07:14:10.433Z,98321.44
2023-03-12T07:16:12.140Z,98327.59
2023-03-12T07:18:14.048Z,98330.03
2023-03-12T07:20:15.853Z,98317.91
2023-03-12T07:22:17.845Z,98319.28
2023-03-12T07:24:19.434Z,98336.03
2023-03-12T07:26:22.126Z,98333.06
2023-03-12T07:28:23.981Z,98329.22
2023-03-12T07:30:25.616Z,98329.16
2023-03-12T07:32:27.592Z,98334.47
2023-03-12T07:34:29.429Z,98331.91
2023-03-12T07:36:31.148Z,98323.97
2023-03-12T07:38:32.881Z,98326.00
2023-03-12T07:40:35.790Z,98311.56
2023-03-12T07:42:37.305Z,98316.09
2023-03-12T07:44:39.159Z,98314.41
2023-03-12T07:46:40.694Z,98319.94
2023-03-12T07:48:44.294Z,98315.72
2023-03-12T07:50:48.772Z,98310.69
2023-03-12T07:52:52.804Z,98314.59
2023-03-12T07:54:56.516Z,98315.75
2023-03-12T07:56:58.079Z,98312.59
2023-03-12T07:58:59.693Z,98320.88
2023-03-12T08:01:01.257Z,98311.25
2023-03-12T08:03:02.943Z,98311.59
2023-03-12T08:05:05.273Z,98303.28
2023-03-12T08:07:09.139Z,98309.28
2023-03-12T08:09:11.273Z,98312.31
2023-03-12T08:11:12.887Z,98311.03
2023-03-12T08:13:14.378Z,98309.56
2023-03-12T08:15:16.367Z,98311.19
2023-03-12T08:17:18.282Z,98314.25
2023-03-12T08:19:19.734Z,98320.28
2023-03-12T08:21:21.291Z,98324.19
2023-03-12T08:23:24.145Z,98320.19
2023-03-12T08:25:26.001Z,98332.00
2023-03-12T08:27:27.604Z,98329.63
2023-03-12T08:29:30.367Z,98322.72
2023-03-12T08:31:32.150Z,98313.88
2023-03-12T08:33:33.700Z,98314.00
2023-03-12T08:35:35.331Z,98311.19
2023-03-12T08:37:36.822Z,98307.78
2023-03-12T08:39:38.627Z,98306.00
2023-03-12T08:41:40.113Z,98306.97
2023-03-12T08:43:41.763Z,98297.69
2023-03-12T08:45:43.294Z,98296.75
2023-03-12T08:47:45.943Z,98302.41
2023-03-12T08:49:47.647Z,98302.28
2023-03-12T08:51:51.720Z,98296.50
2023-03-12T08:53:53.342Z,98300.75
2023-03-12T08:55:55.620Z,98301.44
2023-03-12T08:57:57.931Z,98291.06
2023-03-12T08:59:59.441Z,98284.19
2023-03-12T09:02:01.421Z,98280.63
2023-03-12T09:04:04.381Z,98278.47
2023-03-12T09:06:13.075Z,98274.41
2023-03-12T09:08:15.634Z,98275.53
2023-03-12T09:10:17.715Z,98269.59
2023-03-12T09:12:19.334Z,98279.06
2023-03-12T09:16:42.379Z,98280.34
2023-03-12T09:18:43.893Z,98275.09
2023-03-12T09:20:47.990Z,98288.28
2023-03-12T09:22:49.826Z,98276.38
2023-03-12T09:24:51.524Z,98274.34
2023-03-12T09:26:53.344Z,98266.28
2023-03-12T09:28:55.294Z,98271.78
2023-03-12T09:30:56.916Z,98263.13
2023-03-12T09:32:58.655Z,98268.66
2023-03-12T09:35:00.267Z,98269.78
2023-03-12T09:37:01.783Z,98273.63
2023-03-12T09:39:03.698Z,98277.25
2023-03-12T09:41:15.137Z,98268.59
2023-03-12T09:43:50.615Z,98274.94
2023-03-12T09:45:53.658Z,98277.19
2023-03-12T09:48:01.377Z,98262.31
2023-03-12T09:50:07.996Z,98265.34
2023-03-12T09:52:24.499Z,98270.28
2023-03-12T09:54:36.756Z,98269.28
2023-03-12T09:56:38.983Z,98265.25
2023-03-12T09:58:42.459Z,98269.91
2023-03-12T10:00:45.820Z,98259.59
2023-03-12T10:03:12.786Z,98262.38
2023-03-12T10:05:53.070Z,98262.44
2023-03-12T10:08:25.071Z,98253.00
2023-03-12T10:10:46.158Z,98249.84
2023-03-12T10:13:13.644Z,98251.28
2023-03-12T10:15:36.839Z,98246.22
2023-03-12T10:18:16.187Z,98246.59
2023-03-12T10:20:42.134Z,98244.25
2023-03-12T10:23:17.527Z,98240.22
2023-03-12T10:25:46.414Z,98241.09
2023-03-12T10:27:48.553Z,98237.09
2023-03-12T10:29:52.927Z,98239.59
2023-03-12T10:32:05.845Z,98229.56
2023-03-12T10:34:47.031Z,98226.59
2023-03-12T10:36:48.645Z,98234.56
2023-03-12T10:38:50.117Z,98227.50
2023-03-12T10:40:51.756Z,98233.53
2023-03-12T10:42:54.034Z,98230.56
2023-03-12T10:45:14.729Z,98231.94
2023-03-12T10:47:40.462Z,98237.38
2023-03-12T10:49:41.901Z,98239.00
2023-03-12T10:51:57.145Z,98237.38
2023-03-12T10:53:58.749Z,98237.38
2023-03-12T10:56:05.983Z,98245.81
2023-03-12T10:58:23.895Z,98244.97
2023-03-12T11:00:28.083Z,98250.16
2023-03-12T11:02:41.549Z,98250.16
2023-03-12T11:04:52.855Z,98255.59
2023-03-12T11:07:07.249Z,98250.97
2023-03-12T11:09:19.460Z,98257.50
2023-03-12T11:11:32.644Z,98268.41
2023-03-12T11:13:37.955Z,98258.34
2023-03-12T11:15:41.920Z,98261.31
2023-03-12T11:17:43.416Z,98251.50
2023-03-12T11:19:44.923Z,98254.78
2023-03-12T11:22:01.780Z,98248.50
2023-03-12T11:24:07.083Z,98243.03
2023-03-12T11:26:16.877Z,98238.41
2023-03-12T11:28:23.686Z,98248.50
2023-03-12T11:30:45.867Z,98244.13
2023-03-12T11:32:49.308Z,98247.66
2023-03-12T11:34:55.784Z,98243.03
2023-03-12T11:37:17.112Z,98243.31
2023-03-12T11:39:45.528Z,98248.22
2023-03-12T11:41:58.624Z,98244.38
2023-03-12T11:44:12.055Z,98243.00
2023-03-12T11:46:32.773Z,98247.63
2023-03-12T11:49:02.196Z,98240.78
2023-03-12T11:51:25.230Z,98238.34
2023-03-12T11:54:04.369Z,98234.50
2023-03-12T11:56:29.057Z,98227.66
2023-03-12T11:58:45.500Z,98235.25
2023-03-12T12:01:12.786Z,98232.78
2023-03-12T12:03:45.654Z,98233.63
2023-03-12T12:06:00.966Z,98236.84
2023-03-12T12:08:48.019Z,98234.41
2023-03-12T12:11:19.323Z,98225.41
2023-03-12T12:13:41.914Z,98235.47
2023-03-12T12:15:50.745Z,98230.03
2023-03-12T12:18:04.360Z,98227.31
2023-03-12T12:20:21.696Z,98216.66
2023-03-12T12:22:26.047Z,98212.28
2023-03-12T12:24:37.567Z,98209.28
2023-03-12T12:26:59.594Z,98208.72
2023-03-12T12:29:36.990Z,98199.16
2023-03-12T12:31:58.601Z,98198.34
2023-03-12T12:34:17.977Z,98190.44
2023-03-12T12:36:19.488Z,98191.28
2023-03-12T12:38:34.320Z,98186.34
2023-03-12T12:40:44.070Z,98186.34
2023-03-12T12:42:51.820Z,98181.44
2023-03-12T12:44:57.648Z,98176.81
2023-03-12T12:47:05.611Z,98173.25
2023-03-12T12:49:14.647Z,98165.91
2023-03-12T12:51:19.759Z,98180.09
2023-03-12T12:53:31.798Z,98173.81
2023-03-12T12:55:50.421Z,98174.91
2023-03-12T12:58:01.858Z,98178.47
2023-03-12T13:00:22.684Z,98165.66
2023-03-12T13:02:28.765Z,98165.66
2023-03-12T13:04:39.394Z,98170.84
2023-03-12T13:07:13.404Z,98174.09
2023-03-12T13:09:20.582Z,98173.03
2023-03-12T13:11:31.496Z,98166.75
2023-03-12T13:13:35.661Z,98145.50
2023-03-12T13:15:43.669Z,98156.41
2023-03-12T13:17:51.086Z,98150.13
2023-03-12T13:20:17.237Z,98149.28
2023-03-12T13:22:39.246Z,98153.66
2023-03-12T13:25:05.281Z,98143.59
2023-03-12T13:27:19.808Z,98153.94
2023-03-12T13:29:29.188Z,98150.13
2023-03-12T13:31:30.885Z,98153.16
2023-03-12T13:33:45.176Z,98150.44
2023-03-12T13:36:17.488Z,98149.59
2023-03-12T13:38:36.396Z,98154.22
2023-03-12T13:40:51.897Z,98141.16
2023-03-12T13:43:02.291Z,98154.78
2023-03-12T13:45:27.762Z,98145.53
2023-03-12T13:47:32.298Z,98148.25
2023-03-12T13:49:45.769Z,98151.00
2023-03-12T13:51:57.203Z,98148.25
2023-03-12T13:54:03.734Z,98140.09
2023-03-12T13:56:11.646Z,98148.25
2023-03-12T13:58:21.314Z,98146.91
2023-03-12T14:00:36.193Z,98155.38
2023-03-12T14:02:45.269Z,98156.44
2023-03-12T14:04:46.973Z,98152.66
2023-03-12T14:07:09.815Z,98152.06
2023-03-12T14:09:45.325Z,98167.91
2023-03-12T14:12:08.720Z,98154.53
2023-03-12T14:14:20.667Z,98151.03
2023-03-12T14:16:41.292Z,98154.81
2023-03-12T14:18:45.855Z,98155.91
2023-03-12T14:20:58.072Z,98155.66
2023-03-12T14:23:06.054Z,98160.84
2023-03-12T14:25:42.251Z,98157.03
2023-03-12T14:27:47.469Z,98151.34
2023-03-12T14:30:12.690Z,98144.78
2023-03-12T14:32:18.894Z,98149.16
2023-03-12T14:34:30.661Z,98150.00
2023-03-12T14:36:41.360Z,98154.91
2023-03-12T14:38:46.057Z,98146.47
2023-03-12T14:41:06.278Z,98151.66
2023-03-12T14:43:21.150Z,98152.75
2023-03-12T14:45:23.458Z,98150.59
2023-03-12T14:47:25.347Z,98159.31
2023-03-12T14:49:31.070Z,98164.75
2023-03-12T14:51:36.099Z,98168.56
2023-03-12T14:53:41.240Z,98163.09
2023-03-12T14:55:42.713Z,98166.41
2023-03-12T14:57:45.054Z,98164.25
2023-03-12T14:59:53.786Z,98161.25
2023-03-12T15:02:15.649Z,98163.72
2023-03-12T15:04:21.551Z,98166.19
2023-03-12T15:06:30.504Z,98146.81
2023-03-12T15:08:41.121Z,98151.50
2023-03-12T15:10:49.654Z,98156.69
2023-03-12T15:12:55.371Z,98144.69
2023-03-12T15:15:05.543Z,98143.88
2023-03-12T15:17:16.506Z,98145.25
2023-03-12T15:19:23.274Z,98149.09
2023-03-12T15:21:38.393Z,98146.66
2023-03-12T15:23:44.561Z,98143.13
2023-03-12T15:25:46.214Z,98134.97
2023-03-12T15:27:47.809Z,98134.69
2023-03-12T15:29:49.476Z,98132.81
2023-03-12T15:31:51.259Z,98128.75
2023-03-12T15:34:02.368Z,98123.59
2023-03-12T15:36:21.699Z,98124.44
2023-03-12T15:38:24.259Z,98115.97
2023-03-12T15:40:28.357Z,98109.16
2023-03-12T15:42:38.673Z,98106.72
2023-03-12T15:44:58.863Z,98114.63
2023-03-12T15:47:10.238Z,98113.81
2023-03-12T15:49:22.294Z,98127.78
2023-03-12T15:51:30.700Z,98121.78
2023-03-12T15:53:34.468Z,98112.50
2023-03-12T15:55:36.364Z,98109.25
2023-03-12T15:58:42.559Z,98114.16
2023-03-12T16:00:45.482Z,98120.75
2023-03-12T16:02:49.234Z,98124.84
2023-03-12T16:04:51.433Z,98129.78
2023-03-12T16:06:53.526Z,98126.81
2023-03-12T16:09:01.198Z,98127.34
2023-03-12T16:11:03.191Z,98132.53
2023-03-12T16:13:05.829Z,98135.56
2023-03-12T16:15:09.497Z,98147.56
2023-03-12T16:17:14.217Z,98143.22
2023-03-12T16:19:18.614Z,98151.13
2023-03-12T16:21:20.514Z,98151.97
2023-03-12T16:23:22.063Z,98154.41
2023-03-12T16:25:26.403Z,98152.22
2023-03-12T16:27:32.752Z,98146.22
2023-03-12T16:29:38.092Z,98142.13
2023-03-12T16:31:42.393Z,98146.22
2023-03-12T16:33:44.837Z,98139.13
2023-03-12T16:35:47.088Z,98141.88
2023-03-12T16:37:49.121Z,98149.78
2023-03-12T16:39:50.662Z,98160.41
2023-03-12T16:41:52.232Z,98166.47
2023-03-12T16:43:54.827Z,98163.72
2023-03-12T16:45:58.053Z,98161.00
2023-03-12T16:48:03.254Z,98161.53
2023-03-12T16:50:22.796Z,98150.63
2023-03-12T16:52:28.993Z,98157.16
2023-03-12T16:54:30.978Z,98148.97
2023-03-12T16:56:32.618Z,98150.63
2023-03-12T16:58:34.256Z,98153.34
2023-03-12T17:00:40.738Z,98156.09
2023-03-12T17:02:47.148Z,98145.97
2023-03-12T17:04:48.929Z,98145.69
2023-03-12T17:06:50.568Z,98153.06
2023-03-12T17:08:56.466Z,98149.25
2023-03-12T17:10:59.849Z,98154.72
2023-03-12T17:13:01.690Z,98150.34
2023-03-12T17:15:07.850Z,98152.00
2023-03-12T17:17:09.766Z,98132.03
2023-03-12T17:19:14.001Z,98139.16
2023-03-12T17:21:19.077Z,98135.84
2023-03-12T17:23:20.531Z,98142.13
2023-03-12T17:25:28.815Z,98137.78
2023-03-12T17:27:30.896Z,98142.97
2023-03-12T17:29:32.743Z,98153.34
2023-03-12T17:31:35.539Z,98157.69
2023-03-12T17:33:38.210Z,98160.44
2023-03-12T17:35:40.333Z,98170.28
2023-03-12T17:37:41.912Z,98161.53
2023-03-12T17:39:43.366Z,98163.16
2023-03-12T17:41:45.270Z,98174.09
2023-03-12T17:43:46.840Z,98182.28
2023-03-12T17:45:49.275Z,98179.56
2023-03-12T17:47:50.861Z,98170.56
2023-03-12T17:49:52.341Z,98176.81
2023-03-12T17:51:53.992Z,98177.94
2023-03-12T17:53:55.547Z,98173.84
2023-03-12T17:55:57.177Z,98171.94
2023-03-12T17:57:58.882Z,98171.34
2023-03-12T18:00:00.509Z,98171.09
2023-03-12T18:02:02.117Z,98169.19
2023-03-12T18:04:03.654Z,98170.28
2023-03-12T18:06:05.502Z,98166.47
2023-03-12T18:08:08.478Z,98176.81
2023-03-12T18:10:11.203Z,98171.63
2023-03-12T18:12:13.333Z,98181.47
2023-03-12T18:14:16.431Z,98178.16
2023-03-12T18:16:23.891Z,98177.09
2023-03-12T18:18:26.897Z,98173.53
2023-03-12T18:20:38.518Z,98182.00
2023-03-12T18:22:43.145Z,98195.13
2023-03-12T18:24:45.246Z,98188.84
2023-03-12T18:26:49.369Z,98196.47
2023-03-12T18:28:51.010Z,98190.44
2023-03-12T18:30:53.832Z,98190.44
2023-03-12T18:32:55.546Z,98184.19
2023-03-12T18:34:57.748Z,98188.28
2023-03-12T18:36:59.396Z,98187.44
2023-03-12T18:39:04.532Z,98197.53
2023-03-12T18:41:08.734Z,98200.28
2023-03-12T18:43:12.682Z,98200.28
2023-03-12T18:45:15.607Z,98193.44
2023-03-12T18:47:19.189Z,98196.44
2023-03-12T18:49:25.085Z,98199.72
2023-03-12T18:51:26.969Z,98193.13
2023-03-12T18:53:28.965Z,98198.34
2023-03-12T18:55:30.801Z,98195.88
2023-03-12T18:57:34.605Z,98195.31
2023-03-12T18:59:36.257Z,98187.41
2023-03-12T19:01:37.975Z,98188.47
2023-03-12T19:03:44.476Z,98184.94
2023-03-12T19:05:46.378Z,98185.75
2023-03-12T19:07:48.118Z,98192.03
2023-03-12T19:09:52.467Z,98185.75
2023-03-12T19:11:53.982Z,98184.38
2023-03-12T19:13:55.717Z,98186.03
2023-03-12T19:16:02.304Z,98185.22
2023-03-12T19:18:04.021Z,98191.75
2023-03-12T19:20:07.281Z,98192.84
2023-03-12T19:22:09.601Z,98200.22
2023-03-12T19:24:11.334Z,98205.41
2023-03-12T19:26:15.787Z,98197.47
2023-03-12T19:28:17.737Z,98208.13
2023-03-12T19:30:19.583Z,98214.41
2023-03-12T19:32:25.318Z,98202.94
2023-03-12T19:34:29.383Z,98196.41
2023-03-12T19:36:31.049Z,98205.16
2023-03-12T19:38:32.605Z,98198.84
2023-03-12T19:40:34.946Z,98201.59
2023-03-12T19:42:36.684Z,98195.84
2023-03-12T19:44:40.242Z,98195.59
2023-03-12T19:46:46.853Z,98190.13
2023-03-12T19:48:48.516Z,98190.13
2023-03-12T19:50:52.395Z,98193.69
2023-03-12T19:52:53.928Z,98189.03
2023-03-12T19:55:04.191Z,98197.81
2023-03-12T19:57:06.655Z,98200.78
2023-03-12T19:59:08.296Z,98194.78
2023-03-12T20:01:09.858Z,98198.06
2023-03-12T20:03:18.431Z,98202.69
2023-03-12T20:05:20.056Z,98211.72
2023-03-12T20:07:24.626Z,98208.47
2023-03-12T20:09:30.769Z,98211.19
2023-03-12T20:11:39.709Z,98221.84
2023-03-12T20:13:41.532Z,98221.84
2023-03-12T20:15:49.154Z,98211.50
2023-03-12T20:18:02.005Z,98215.03
2023-03-12T20:20:06.298Z,98217.75
2023-03-12T20:22:08.431Z,98215.59
2023-03-12T20:24:11.282Z,98213.41
2023-03-12T20:26:14.710Z,98223.22
2023-03-12T20:28:21.665Z,98233.63
2023-03-12T20:30:23.779Z,98227.09
2023-03-12T20:32:25.636Z,98234.19
2023-03-12T20:34:28.250Z,98237.72
2023-03-12T20:36:29.924Z,98239.09
2023-03-12T20:38:32.584Z,98230.91
2023-03-12T20:40:34.374Z,98235.84
2023-03-12T20:42:35.940Z,98239.41
2023-03-12T20:44:37.522Z,98237.22
2023-03-12T20:46:39.140Z,98236.69
2023-03-12T20:48:40.684Z,98245.72
2023-03-12T20:50:44.814Z,98236.69
2023-03-12T20:52:46.250Z,98235.59
2023-03-12T20:54:50.560Z,98234.50
2023-03-12T20:56:52.258Z,98233.44
2023-03-12T20:58:53.971Z,98235.06
2023-03-12T21:00:55.713Z,98235.88
2023-03-12T21:02:57.413Z,98236.41
2023-03-12T21:05:01.669Z,98234.53
2023-03-12T21:07:03.252Z,98227.97
2023-03-12T21:09:04.968Z,98222.22
2023-03-12T21:11:07.258Z,98224.69
2023-03-12T21:13:17.882Z,98229.34
2023-03-12T21:15:19.922Z,98232.34
2023-03-12T21:17:21.444Z,98226.63
2023-03-12T21:19:23.299Z,98223.91
2023-03-12T21:21:24.944Z,98218.16
2023-03-12T21:23:26.497Z,98220.59
2023-03-12T21:25:28.082Z,98214.88
2023-03-12T21:27:35.841Z,98215.97
2023-03-12T21:29:46.088Z,98221.97
2023-03-12T21:31:50.184Z,98211.31
2023-03-12T21:33:54.293Z,98209.13
2023-03-12T21:35:55.835Z,98216.25
2023-03-12T21:37:57.393Z,98213.50
2023-03-12T21:40:01.700Z,98213.22
2023-03-12T21:42:03.815Z,98218.44
2023-03-12T21:44:05.738Z,98216.50
2023-03-12T21:46:12.902Z,98210.78
2023-03-12T21:48:14.565Z,98205.56
2023-03-12T21:50:16.158Z,98208.59
2023-03-12T21:52:17.621Z,98202.59
2023-03-12T21:54:19.240Z,98199.84
2023-03-12T21:56:28.039Z,98199.31
2023-03-12T21:58:31.242Z,98191.91
2023-03-12T22:00:32.731Z,98188.94
2023-03-12T22:02:34.294Z,98190.00
2023-03-12T22:04:35.885Z,98183.72
2023-03-12T22:06:37.478Z,98193.28
2023-03-12T22:08:43.337Z,98185.66
2023-03-12T22:10:45.254Z,98181.00
2023-03-12T22:12:46.867Z,98194.66
2023-03-12T22:14:48.617Z,98185.66
2023-03-12T22:16:50.603Z,98182.34
2023-03-12T22:18:52.168Z,98187.28
2023-03-12T22:20:57.605Z,98181.56
2023-03-12T22:23:04.850Z,98178.53
2023-03-12T22:25:06.748Z,98174.16
2023-03-12T22:27:08.458Z,98181.28
2023-03-12T22:29:09.947Z,98184.00
2023-03-12T22:31:11.467Z,98173.06
2023-03-12T22:33:13.964Z,98181.00
2023-03-12T22:35:15.446Z,98180.19
2023-03-12T22:37:17.306Z,98181.28
2023-03-12T22:39:19.945Z,98176.34
2023-03-12T22:41:26.749Z,98173.63
2023-03-12T22:43:28.558Z,98172.00
2023-03-12T22:45:30.131Z,98168.16
2023-03-12T22:47:32.806Z,98167.59
2023-03-12T22:49:34.460Z,98171.41
2023-03-12T22:51:36.047Z,98167.59
2023-03-12T22:53:37.502Z,98167.59
2023-03-12T22:55:42.104Z,98161.59
2023-03-12T22:57:43.627Z,98153.41
2023-03-12T22:59:47.216Z,98152.84
2023-03-12T23:01:51.153Z,98155.59
2023-03-12T23:03:53.054Z,98145.44
2023-03-12T23:05:54.957Z,98143.81
2023-03-12T23:07:56.511Z,98144.91
2023-03-12T23:09:58.268Z,98149.56
2023-03-12T23:11:59.878Z,98154.47
2023-03-12T23:14:01.539Z,98146.28
2023-03-12T23:16:14.296Z,98153.09
2023-03-12T23:18:16.728Z,98151.19
2023-03-12T23:20:23.429Z,98151.47
2023-03-12T23:22:32.573Z,98141.34
2023-03-12T23:24:34.404Z,98135.88
2023-03-12T23:26:36.032Z,98129.63
2023-03-12T23:28:37.654Z,98127.44
2023-03-12T23:30:39.229Z,98124.69
2023-03-12T23:32:41.106Z,98120.84
2023-03-12T23:34:42.802Z,98123.03
2023-03-12T23:36:45.994Z,98127.69
2023-03-12T23:38:48.802Z,98115.94
2023-03-12T23:40:50.237Z,98113.47
2023-03-12T23:42:51.829Z,98116.50
2023-03-12T23:44:53.462Z,98112.09
2023-03-12T23:46:55.026Z,98111.84
2023-03-12T23:48:57.166Z,98111.84
2023-03-12T23:51:19.431Z,98105.28
2023-03-12T23:53:23.434Z,98110.75
2023-03-12T23:55:24.933Z,98113.47
2023-03-12T23:57:26.838Z,98109.13
2023-03-12T23:59:28.269Z,98103.09
